Time;durP1;ratioP1;P1;durP2;ratioP2;P2;SDS_P1;SDS_P2;PMS_P1;PMS_P2;Temp;Humidity;BMP_temperature;BMP_pressure;BME280_temperature;BME280_humidity;BME280_pressure;Samples;Min_cycle;Max_cycle;Signal;HPM_P1;HPM_P2
2022/11/04 00:01:41;;;;;;;11.55;5.55;;;;;;;1.13;72.71;99555.78;5051630;28;20420;-48
2022/11/04 00:04:08;;;;;;;12.65;5.97;;;;;;;1.13;72.64;99558.34;5033733;28;20168;-49
2022/11/04 00:06:34;;;;;;;16.85;6.70;;;;;;;1.14;72.63;99556.63;5050050;28;20571;-50
2022/11/04 00:09:00;;;;;;;14.23;6.57;;;;;;;1.14;72.85;99554.09;5050381;28;20044;-46
2022/11/04 00:14:12;;;;;;;13.68;6.95;;;;;;;1.17;72.58;99556.63;5039545;28;20041;-50
2022/11/04 00:19:23;;;;;;;15.32;6.55;;;;;;;1.16;73.06;99550.66;5050230;28;20037;-48
2022/11/04 00:30:09;;;;;;;12.43;6.20;;;;;;;1.12;72.69;99551.50;5050203;28;20037;-51
2022/11/04 00:35:20;;;;;;;11.82;6.55;;;;;;;1.15;73.11;99556.63;5051020;28;20090;-48
2022/11/04 00:37:46;;;;;;;14.90;6.07;;;;;;;1.11;73.23;99552.34;5049703;28;20083;-50
2022/11/04 00:40:14;;;;;;;15.35;5.97;;;;;;;1.15;73.06;99553.22;5049698;28;20060;-46
2022/11/04 00:42:43;;;;;;;19.27;7.43;;;;;;;1.15;73.06;99556.63;5050785;28;20401;-50
2022/11/04 00:45:09;;;;;;;13.38;6.25;;;;;;;1.16;73.22;99549.78;5048113;28;20471;-49
2022/11/04 00:47:35;;;;;;;14.63;6.82;;;;;;;1.16;72.91;99549.78;5038162;28;20049;-50
2022/11/04 00:50:01;;;;;;;15.48;7.43;;;;;;;1.14;73.00;99548.97;5029197;28;20099;-47
2022/11/04 00:52:28;;;;;;;14.88;6.88;;;;;;;1.13;73.13;99542.13;5047082;28;20459;-50
2022/11/04 00:54:54;;;;;;;16.38;6.80;;;;;;;1.13;73.29;99539.56;5050406;28;20048;-47
2022/11/04 00:57:20;;;;;;;14.80;6.47;;;;;;;1.11;72.98;99543.81;5049281;28;20512;-45
2022/11/04 00:59:46;;;;;;;14.05;6.72;;;;;;;0.97;73.04;99525.03;5051188;28;20580;-45
2022/11/04 01:02:12;;;;;;;15.95;7.57;;;;;;;1.11;72.78;99546.38;5044346;28;20048;-42
2022/11/04 01:04:38;;;;;;;14.25;6.50;;;;;;;1.08;72.82;99534.44;5049301;28;20504;-47
2022/11/04 01:07:04;;;;;;;13.93;6.53;;;;;;;1.07;73.16;99535.28;5049300;28;20045;-45
2022/11/04 01:09:30;;;;;;;14.70;6.68;;;;;;;1.10;73.06;99545.53;5049673;28;20512;-51
2022/11/04 01:11:56;;;;;;;14.90;7.28;;;;;;;1.11;73.17;99538.69;5049336;28;20041;-48
2022/11/04 01:14:22;;;;;;;13.00;6.00;;;;;;;1.11;73.38;99538.69;5044696;28;20080;-42
2022/11/04 01:16:49;;;;;;;18.65;6.88;;;;;;;1.10;73.13;99529.34;5040470;28;20127;-53
2022/11/04 01:19:15;;;;;;;12.48;6.20;;;;;;;1.10;73.21;99535.28;5047868;28;20037;-49
2022/11/04 01:21:41;;;;;;;14.55;6.97;;;;;;;1.09;72.92;99536.16;5046321;28;20060;-47
2022/11/04 01:24:07;;;;;;;13.73;6.93;;;;;;;1.07;72.77;99529.31;5049530;28;20051;-46
2022/11/04 01:26:33;;;;;;;16.25;6.28;;;;;;;1.08;73.04;99539.56;5043119;28;20048;-50
2022/11/04 01:28:59;;;;;;;15.45;6.75;;;;;;;1.08;73.00;99536.16;5048638;28;20037;-47
2022/11/04 01:31:27;;;;;;;16.95;7.40;;;;;;;0.82;72.87;99493.47;5047538;28;20463;-52
2022/11/04 01:33:53;;;;;;;16.35;6.97;;;;;;;0.89;72.83;99501.16;5049143;28;20539;-48
2022/11/04 01:36:20;;;;;;;16.45;6.90;;;;;;;1.08;72.97;99531.03;5011169;28;20064;-45
2022/11/04 01:38:46;;;;;;;16.38;6.80;;;;;;;1.09;72.82;99542.97;5046778;28;20042;-48
2022/11/04 01:41:21;;;;;;;13.27;6.55;;;;;;;1.07;73.08;99548.09;5050678;28;20040;-48
2022/11/04 01:43:53;;;;;;;18.90;7.00;;;;;;;1.08;72.96;99548.94;5048342;28;20041;-48
2022/11/04 01:46:25;;;;;;;17.45;6.93;;;;;;;1.03;72.96;99543.81;5048738;28;20076;-49
2022/11/04 01:48:52;;;;;;;13.18;5.90;;;;;;;1.08;73.15;99547.25;5032956;28;20041;-52
2022/11/04 01:51:19;;;;;;;17.25;6.63;;;;;;;1.09;73.12;99554.09;5049701;28;20068;-47
2022/11/04 01:53:45;;;;;;;13.27;6.07;;;;;;;1.09;73.01;99548.09;5047915;28;20527;-47
2022/11/04 01:56:12;;;;;;;13.15;5.57;;;;;;;1.10;73.21;99545.53;5047656;28;20041;-48
2022/11/04 01:58:41;;;;;;;10.95;5.57;;;;;;;1.08;72.69;99544.69;5049849;28;20735;-48
2022/11/04 02:01:10;;;;;;;11.52;5.95;;;;;;;0.87;73.13;99507.97;5064654;28;20572;-47
2022/11/04 02:04:32;;;;;;;15.93;5.97;;;;;;;1.12;73.09;99542.97;5042124;28;20049;-47
2022/11/04 02:06:56;;;;;;;12.75;5.40;;;;;;;1.08;72.69;99547.25;5049012;28;20298;-49
2022/11/04 02:09:23;;;;;;;13.07;5.60;;;;;;;1.09;72.68;99548.09;5047907;28;20128;-46
2022/11/04 02:14:34;;;;;;;15.32;6.57;;;;;;;1.08;72.71;99547.25;5036503;28;20041;-49
2022/11/04 02:17:20;;;;;;;16.42;6.90;;;;;;;1.08;72.95;99544.69;5047417;28;20048;-52
2022/11/04 02:19:58;;;;;;;13.60;6.78;;;;;;;1.05;72.51;99544.66;5027920;28;20055;-49
2022/11/04 02:22:41;;;;;;;20.90;7.22;;;;;;;1.00;72.65;99551.47;5044405;28;20050;-52
2022/11/04 02:25:44;;;;;;;18.67;7.72;;;;;;;1.04;73.12;99542.13;5047898;28;20590;-51
2022/11/04 02:28:34;;;;;;;18.50;7.20;;;;;;;1.05;73.16;99541.25;5046521;28;20037;-45
2022/11/04 02:31:18;;;;;;;13.15;5.65;;;;;;;1.05;72.92;99546.38;5044182;28;20127;-48
2022/11/04 02:33:58;;;;;;;15.73;6.47;;;;;;;0.88;72.63;99507.97;5041620;28;20047;-48
2022/11/04 02:36:34;;;;;;;17.40;6.22;;;;;;;1.01;72.50;99537.84;5047572;28;20593;-52
2022/11/04 02:39:32;;;;;;;16.30;6.63;;;;;;;1.01;72.82;99544.66;5049324;28;20620;-49
2022/11/04 02:42:08;;;;;;;13.80;6.10;;;;;;;0.81;72.73;99512.22;5046819;28;20067;-49
2022/11/04 02:44:47;;;;;;;17.50;6.75;;;;;;;0.96;72.61;99544.66;5031231;28;20036;-46
2022/11/04 02:47:15;;;;;;;14.82;7.18;;;;;;;0.97;72.61;99532.72;5049024;28;20202;-48
2022/11/04 02:49:52;;;;;;;16.58;6.47;;;;;;;1.00;72.79;99540.38;5048661;28;20127;-50
2022/11/04 02:52:33;;;;;;;13.27;6.03;;;;;;;0.80;72.42;99509.66;5047562;28;20510;-50
2022/11/04 02:55:02;;;;;;;15.52;6.13;;;;;;;1.00;72.64;99545.50;5048478;28;20056;-47
2022/11/04 02:57:30;;;;;;;16.67;5.95;;;;;;;1.02;72.29;99543.81;5023482;28;20041;-48
2022/11/04 02:59:59;;;;;;;14.98;7.05;;;;;;;1.03;72.38;99553.22;5027746;28;20049;-48
2022/11/04 03:02:30;;;;;;;15.50;6.35;;;;;;;0.78;72.39;99498.56;5038510;28;20045;-48
2022/11/04 03:04:57;;;;;;;13.45;6.38;;;;;;;1.04;72.51;99537.00;5049714;28;20475;-51
2022/11/04 03:07:29;;;;;;;14.02;6.13;;;;;;;1.04;72.18;99540.41;5051089;28;20037;-49
2022/11/04 03:09:59;;;;;;;13.55;6.47;;;;;;;1.02;72.21;99537.00;5051000;28;20045;-52
2022/11/04 03:12:30;;;;;;;12.38;5.38;;;;;;;1.00;72.12;99537.81;5063604;28;20036;-49
2022/11/04 03:15:01;;;;;;;12.85;5.25;;;;;;;1.00;71.83;99536.13;5049521;28;20037;-48
2022/11/04 03:17:35;;;;;;;7.82;3.40;;;;;;;1.01;71.95;99532.72;5050720;28;20037;-47
2022/11/04 03:20:03;;;;;;;6.55;3.63;;;;;;;1.03;71.42;99535.28;5034792;28;20094;-46
2022/11/04 03:22:29;;;;;;;5.38;3.15;;;;;;;1.04;71.15;99539.56;5050912;28;20056;-46
2022/11/04 03:24:56;;;;;;;6.55;2.80;;;;;;;1.04;71.28;99539.56;5063407;28;20503;-48
2022/11/04 03:27:46;;;;;;;7.32;2.72;;;;;;;1.03;71.38;99535.28;5050031;28;20075;-48
2022/11/04 03:30:20;;;;;;;6.93;3.00;;;;;;;0.83;71.07;99507.97;5052250;28;20044;-51
2022/11/04 03:32:57;;;;;;;6.20;2.70;;;;;;;1.06;70.66;99535.28;5050897;28;20028;-51
2022/11/04 03:35:24;;;;;;;6.95;3.10;;;;;;;1.04;70.74;99540.41;5050536;28;20049;-51
2022/11/04 03:37:50;;;;;;;4.60;2.35;;;;;;;1.02;70.19;99531.88;5065577;28;20037;-49
2022/11/04 03:40:17;;;;;;;5.15;2.22;;;;;;;1.01;70.68;99534.41;5048432;28;20079;-51
2022/11/04 03:42:47;;;;;;;5.13;2.65;;;;;;;1.00;70.25;99538.69;5050213;28;20091;-50
2022/11/04 03:45:14;;;;;;;4.80;2.40;;;;;;;0.88;69.84;99525.88;5050226;28;20032;-46
2022/11/04 03:47:40;;;;;;;5.50;2.83;;;;;;;0.98;70.20;99535.28;5051935;28;20049;-49
2022/11/04 03:50:25;;;;;;;6.63;2.80;;;;;;;0.83;69.74;99507.97;5049460;28;20043;-51
2022/11/04 03:52:50;;;;;;;6.18;2.83;;;;;;;0.95;70.07;99530.16;5021005;28;20738;-54
2022/11/04 03:55:16;;;;;;;6.05;2.92;;;;;;;0.77;69.89;99513.06;5036181;28;20041;-50
2022/11/04 03:57:48;;;;;;;4.70;2.53;;;;;;;1.00;70.17;99540.38;5051136;28;20080;-48
2022/11/04 04:00:19;;;;;;;5.13;2.25;;;;;;;1.00;70.34;99541.25;5050535;28;20580;-47
2022/11/04 04:02:54;;;;;;;6.68;2.83;;;;;;;1.01;70.46;99539.53;5050399;28;20075;-55
2022/11/04 04:05:30;;;;;;;6.53;2.75;;;;;;;1.04;69.98;99540.41;5051278;28;20123;-52
2022/11/04 04:08:00;;;;;;;9.23;2.80;;;;;;;1.09;70.55;99540.41;5050147;28;20044;-52
2022/11/04 04:10:41;;;;;;;7.53;3.13;;;;;;;1.10;70.50;99539.56;5051218;28;20072;-50
2022/11/04 04:13:26;;;;;;;8.27;3.20;;;;;;;1.08;70.30;99544.69;5048377;28;20033;-49
2022/11/04 04:15:59;;;;;;;6.70;2.72;;;;;;;1.10;70.39;99534.47;5040815;28;20068;-51
2022/11/04 04:18:30;;;;;;;5.65;2.47;;;;;;;1.14;70.55;99541.28;5050151;28;20036;-48
2022/11/04 04:20:58;;;;;;;7.95;3.05;;;;;;;1.14;70.76;99541.28;5072973;28;20043;-48
2022/11/04 04:29:00;;;;;;;5.18;2.33;;;;;;;1.23;70.77;99548.97;5046312;28;20142;-48
2022/11/04 04:34:12;;;;;;;5.18;2.45;;;;;;;1.21;70.57;99550.66;5048313;28;20041;-50
2022/11/04 04:36:51;;;;;;;5.57;2.53;;;;;;;1.20;70.43;99547.25;5047924;28;20500;-48
2022/11/04 04:45:02;;;;;;;7.35;2.00;;;;;;;1.14;70.08;99538.72;5048386;28;20527;-49
2022/11/04 04:47:40;;;;;;;5.22;1.80;;;;;;;1.07;70.11;99519.06;5049853;28;20040;-51
2022/11/04 04:50:07;;;;;;;3.30;1.65;;;;;;;1.27;69.89;99553.22;5032444;28;20052;-53
2022/11/04 04:52:36;;;;;;;3.85;2.00;;;;;;;1.31;69.58;99556.66;5046269;28;20049;-47
2022/11/04 04:55:03;;;;;;;5.75;2.15;;;;;;;1.32;69.76;99546.41;5049765;28;20574;-47
2022/11/04 04:57:29;;;;;;;5.15;2.03;;;;;;;1.36;69.57;99549.84;5050564;28;20048;-52
2022/11/04 04:59:54;;;;;;;4.88;2.13;;;;;;;1.35;69.65;99548.13;5050400;28;20419;-51
2022/11/04 05:02:20;;;;;;;6.60;2.55;;;;;;;1.35;69.62;99561.78;5048518;28;20044;-51
2022/11/04 05:04:46;;;;;;;5.28;2.60;;;;;;;1.32;69.22;99556.63;5049367;28;20131;-47
2022/11/04 05:07:12;;;;;;;4.78;2.38;;;;;;;1.31;69.37;99560.06;5049203;28;20136;-49
2022/11/04 05:09:38;;;;;;;7.35;2.90;;;;;;;1.29;69.54;99566.91;5049751;28;20070;-53
2022/11/04 05:12:04;;;;;;;4.20;2.88;;;;;;;1.30;69.83;99555.81;5050308;28;20512;-48
2022/11/04 05:14:30;;;;;;;4.85;2.70;;;;;;;1.31;69.42;99566.91;5019594;28;20133;-48
2022/11/04 05:16:56;;;;;;;8.95;3.05;;;;;;;1.31;69.73;99564.34;5064369;28;20128;-51
2022/11/04 05:19:21;;;;;;;5.68;3.05;;;;;;;1.35;69.73;99564.34;5063836;28;20051;-49
2022/11/04 05:21:47;;;;;;;7.55;2.53;;;;;;;1.31;69.47;99548.97;5049948;28;20044;-46
2022/11/04 05:24:13;;;;;;;9.50;2.90;;;;;;;1.39;69.59;99554.94;5059950;28;20534;-48
2022/11/04 05:26:39;;;;;;;7.75;3.28;;;;;;;1.29;69.36;99543.84;5048278;28;20029;-46
2022/11/04 05:29:05;;;;;;;4.70;2.90;;;;;;;1.29;69.47;99536.16;5046393;28;20080;-51
2022/11/04 05:31:33;;;;;;;7.07;2.90;;;;;;;1.30;69.31;99539.59;5048735;28;20072;-47
2022/11/04 05:34:03;;;;;;;4.45;2.40;;;;;;;1.47;69.45;99561.78;5032088;28;20164;-49
2022/11/04 05:36:28;;;;;;;6.60;2.92;;;;;;;1.50;69.60;99566.06;5049195;28;20087;-49
2022/11/04 05:38:55;;;;;;;10.77;3.53;;;;;;;1.38;69.29;99546.41;5027598;28;20143;-47
2022/11/04 05:41:27;;;;;;;4.55;2.38;;;;;;;1.56;69.09;99574.59;5062512;28;20044;-46
2022/11/04 05:43:54;;;;;;;5.53;2.47;;;;;;;1.57;69.28;99575.47;5054233;28;20048;-46
2022/11/04 05:46:23;;;;;;;6.18;2.80;;;;;;;1.56;69.24;99582.28;5048699;28;20127;-49
2022/11/04 05:48:49;;;;;;;10.80;3.03;;;;;;;1.58;69.47;99579.69;5047640;28;20098;-50
2022/11/04 05:51:18;;;;;;;7.35;3.17;;;;;;;1.62;68.97;99574.56;5047400;28;20048;-49
2022/11/04 05:53:44;;;;;;;6.13;3.30;;;;;;;1.66;69.15;99588.25;5046767;28;20174;-49
2022/11/04 05:56:10;;;;;;;5.75;3.08;;;;;;;1.64;69.26;99578.00;5049595;28;20488;-49
2022/11/04 05:58:36;;;;;;;7.95;3.58;;;;;;;1.71;68.94;99571.19;5049155;28;20072;-50
2022/11/04 06:01:24;;;;;;;6.80;3.35;;;;;;;1.76;68.96;99579.72;5049424;28;20068;-49
2022/11/04 06:03:51;;;;;;;7.47;3.38;;;;;;;1.78;69.19;99577.97;5049338;28;20040;-49
2022/11/04 06:06:17;;;;;;;8.30;3.33;;;;;;;1.83;69.07;99584.00;5049461;28;20120;-47
2022/11/04 06:08:43;;;;;;;12.52;3.70;;;;;;;1.88;69.29;99578.84;5048967;28;20041;-50
2022/11/04 06:11:09;;;;;;;8.52;3.72;;;;;;;1.91;68.78;99582.25;5049253;28;20448;-46
2022/11/04 06:13:34;;;;;;;9.27;3.55;;;;;;;1.91;68.84;99574.56;5043078;28;20072;-51
2022/11/04 06:16:00;;;;;;;7.07;2.88;;;;;;;1.99;68.76;99588.22;5040498;28;20555;-53
2022/11/04 06:18:26;;;;;;;6.63;3.30;;;;;;;1.89;68.68;99566.00;5048993;28;20040;-55
2022/11/04 06:21:13;;;;;;;7.68;3.20;;;;;;;2.00;68.93;99583.94;5027425;28;20044;-50
2022/11/04 06:23:40;;;;;;;9.63;3.85;;;;;;;1.82;68.75;99556.66;5047314;28;20045;-47
2022/11/04 06:26:06;;;;;;;11.32;4.15;;;;;;;2.01;68.99;99583.09;5053237;28;20110;-48
2022/11/04 06:28:32;;;;;;;7.50;3.08;;;;;;;2.06;68.65;99594.19;5029089;28;20068;-53
2022/11/04 06:30:59;;;;;;;6.32;3.10;;;;;;;2.07;69.06;99583.09;5047996;28;20040;-51
2022/11/04 06:33:25;;;;;;;6.43;2.85;;;;;;;2.13;68.96;99589.06;5047344;28;20053;-50
2022/11/04 06:35:51;;;;;;;5.43;2.97;;;;;;;2.20;68.89;99594.19;5061211;28;20037;-47
2022/11/04 06:38:17;;;;;;;10.65;3.50;;;;;;;2.26;68.80;99599.28;5047754;28;20051;-47
2022/11/04 06:40:42;;;;;;;7.85;3.35;;;;;;;2.27;68.34;99599.28;5050768;28;20183;-50
2022/11/04 06:43:08;;;;;;;9.20;3.10;;;;;;;2.29;68.52;99601.84;5032696;28;20424;-48
2022/11/04 06:45:34;;;;;;;7.95;3.30;;;;;;;2.29;68.56;99600.13;5050110;28;20048;-51
2022/11/04 06:48:00;;;;;;;7.20;3.30;;;;;;;2.29;68.47;99600.13;5049798;28;20045;-53
2022/11/04 06:50:26;;;;;;;14.85;3.60;;;;;;;2.30;68.31;99608.69;5050171;28;20771;-52
2022/11/04 06:52:51;;;;;;;7.32;3.13;;;;;;;2.29;68.23;99604.41;5051775;28;20127;-51
2022/11/04 06:55:17;;;;;;;9.05;3.92;;;;;;;2.30;68.29;99606.97;5051137;28;20056;-50
2022/11/04 06:57:43;;;;;;;11.15;4.03;;;;;;;2.31;68.52;99607.81;5040774;28;20047;-52
2022/11/04 07:00:10;;;;;;;11.60;4.10;;;;;;;2.29;68.46;99612.97;5050415;28;20093;-51
2022/11/04 07:02:37;;;;;;;10.85;4.70;;;;;;;2.30;68.68;99618.94;5033307;28;20123;-53
2022/11/04 07:05:03;;;;;;;12.27;4.93;;;;;;;2.30;68.70;99619.81;5048367;28;20074;-53
2022/11/04 07:07:29;;;;;;;10.85;4.55;;;;;;;2.31;68.44;99620.63;5050635;28;20135;-52
2022/11/04 07:09:55;;;;;;;9.75;4.35;;;;;;;2.33;68.75;99618.94;5049604;28;20123;-50
2022/11/04 07:12:23;;;;;;;11.55;5.00;;;;;;;2.35;68.59;99622.34;5049423;28;20040;-51
2022/11/04 07:14:50;;;;;;;16.05;4.80;;;;;;;2.23;68.91;99594.16;5050122;28;20097;-49
2022/11/04 07:17:16;;;;;;;12.27;4.60;;;;;;;2.43;68.97;99620.63;5048533;28;20033;-52
2022/11/04 07:19:42;;;;;;;15.15;4.63;;;;;;;2.42;68.86;99624.88;5049573;28;20048;-49
2022/11/04 07:22:07;;;;;;;10.65;4.10;;;;;;;2.42;69.19;99617.19;5049708;28;20153;-52
2022/11/04 07:24:34;;;;;;;9.63;4.43;;;;;;;2.42;69.52;99622.31;5030112;28;20182;-51
2022/11/04 07:27:00;;;;;;;9.98;3.78;;;;;;;2.44;69.32;99623.19;5050080;28;20044;-50
2022/11/04 07:29:26;;;;;;;8.90;4.15;;;;;;;2.46;69.43;99620.63;5050076;28;20036;-49
2022/11/04 07:31:53;;;;;;;9.25;4.85;;;;;;;2.40;69.50;99621.50;5051460;28;20045;-49
2022/11/04 07:34:19;;;;;;;10.52;4.25;;;;;;;2.39;69.71;99609.53;5051031;28;20056;-52
2022/11/04 07:36:44;;;;;;;11.73;5.00;;;;;;;2.41;69.87;99609.50;5051232;28;20048;-49
2022/11/04 07:39:10;;;;;;;9.43;4.32;;;;;;;2.08;70.05;99557.44;5048584;28;20045;-52
2022/11/04 07:41:36;;;;;;;8.98;4.43;;;;;;;2.41;70.00;99612.91;5049699;28;20416;-53
2022/11/04 07:44:04;;;;;;;12.32;4.68;;;;;;;2.40;70.17;99616.34;5049648;28;20095;-52
2022/11/04 07:46:30;;;;;;;10.10;4.53;;;;;;;2.42;70.25;99614.63;5049763;28;20048;-53
2022/11/04 07:48:57;;;;;;;8.35;4.25;;;;;;;2.26;70.25;99589.88;5048075;28;20041;-53
2022/11/04 07:51:24;;;;;;;10.43;4.50;;;;;;;2.44;70.39;99609.50;5048838;28;20057;-51
2022/11/04 07:53:50;;;;;;;10.52;4.03;;;;;;;2.45;70.35;99616.34;5050462;28;20040;-51
2022/11/04 07:56:17;;;;;;;13.00;4.40;;;;;;;2.47;70.73;99622.31;5051456;28;20043;-50
2022/11/04 07:58:44;;;;;;;13.52;4.68;;;;;;;2.52;70.55;99621.44;5051546;28;20058;-52
2022/11/04 08:01:15;;;;;;;11.05;4.30;;;;;;;2.58;70.67;99620.56;5050995;28;20045;-50
2022/11/04 08:03:41;;;;;;;12.48;4.70;;;;;;;2.61;70.51;99623.13;5048923;28;20044;-51
2022/11/04 08:06:08;;;;;;;9.07;4.03;;;;;;;2.62;70.59;99619.69;5082872;28;20066;-52
2022/11/04 08:08:34;;;;;;;10.50;4.13;;;;;;;2.53;70.30;99607.75;5050461;28;20044;-51
2022/11/04 08:11:03;;;;;;;8.20;3.80;;;;;;;2.64;70.21;99624.81;5051421;28;20451;-50
2022/11/04 08:13:30;;;;;;;7.50;3.58;;;;;;;2.45;70.22;99586.41;5046891;28;20038;-52
2022/11/04 08:16:01;;;;;;;12.05;3.42;;;;;;;2.65;70.43;99618.84;5045915;28;20048;-48
2022/11/04 08:18:27;;;;;;;10.48;4.03;;;;;;;2.68;70.35;99614.53;5033094;28;20506;-49
2022/11/04 08:20:53;;;;;;;10.45;4.05;;;;;;;2.70;70.37;99605.13;5051306;28;20070;-49
2022/11/04 08:23:19;;;;;;;15.70;4.35;;;;;;;2.75;70.07;99603.41;5050905;28;20094;-51
2022/11/04 08:25:45;;;;;;;9.88;4.00;;;;;;;2.48;69.83;99559.88;5050886;28;20129;-51
2022/11/04 08:28:16;;;;;;;7.88;3.90;;;;;;;2.82;69.70;99611.94;5051099;28;20132;-49
2022/11/04 08:31:14;;;;;;;10.95;4.00;;;;;;;2.82;69.87;99609.38;5051158;28;20041;-51
2022/11/04 08:33:40;;;;;;;6.63;3.85;;;;;;;2.79;69.83;99602.50;5047422;28;20057;-51
2022/11/04 08:36:11;;;;;;;9.13;3.95;;;;;;;2.81;69.63;99611.06;5048581;28;20508;-50
2022/11/04 08:38:37;;;;;;;10.15;4.18;;;;;;;2.66;69.87;99584.63;5047265;28;20401;-52
2022/11/04 08:41:04;;;;;;;8.52;3.45;;;;;;;2.88;69.59;99607.59;5049816;28;20051;-49
2022/11/04 08:43:31;;;;;;;9.27;3.80;;;;;;;2.95;69.51;99604.16;5058468;28;20132;-51
2022/11/04 08:45:57;;;;;;;6.97;3.95;;;;;;;2.94;69.18;99610.16;5045784;28;20095;-47
2022/11/04 08:48:23;;;;;;;8.32;4.25;;;;;;;2.95;69.00;99608.44;5049059;28;20037;-50
2022/11/04 08:50:54;;;;;;;14.13;4.32;;;;;;;2.96;68.54;99603.28;5047573;28;20570;-55
2022/11/04 08:53:20;;;;;;;7.85;4.22;;;;;;;2.99;68.79;99610.97;5048761;28;20029;-52
2022/11/04 08:55:46;;;;;;;7.45;3.90;;;;;;;3.01;68.84;99616.09;5049714;28;20099;-51
2022/11/04 08:58:12;;;;;;;10.48;4.00;;;;;;;3.02;68.71;99602.41;5047892;28;20033;-50
2022/11/04 09:00:38;;;;;;;12.20;4.45;;;;;;;3.02;68.52;99604.13;5048619;28;20136;-54
2022/11/04 09:03:04;;;;;;;9.98;4.70;;;;;;;2.95;68.50;99590.47;5046350;28;20124;-54
2022/11/04 09:05:31;;;;;;;8.88;4.32;;;;;;;3.13;68.24;99610.91;5049476;28;20480;-52
2022/11/04 09:07:57;;;;;;;8.98;3.90;;;;;;;3.14;68.22;99607.47;5049516;28;20036;-51
2022/11/04 09:10:22;;;;;;;14.25;4.63;;;;;;;3.15;68.17;99613.47;5049093;28;20428;-52
2022/11/04 09:12:48;;;;;;;13.68;4.35;;;;;;;3.19;68.07;99610.03;5047756;28;20037;-49
2022/11/04 09:15:14;;;;;;;19.38;4.95;;;;;;;3.18;68.01;99610.88;5037795;28;20546;-53
2022/11/04 09:17:42;;;;;;;12.60;5.50;;;;;;;3.09;67.99;99592.97;5047832;28;20045;-55
2022/11/04 09:20:11;;;;;;;11.88;4.65;;;;;;;3.23;67.90;99611.72;5049280;28;20048;-51
2022/11/04 09:22:36;;;;;;;11.20;4.68;;;;;;;3.07;67.81;99581.84;5048307;28;20049;-54
2022/11/04 09:25:03;;;;;;;9.73;4.72;;;;;;;3.21;67.82;99608.28;5048520;28;20044;-53
2022/11/04 09:27:29;;;;;;;15.02;4.70;;;;;;;3.20;67.81;99611.72;5047586;28;20057;-49
2022/11/04 09:29:55;;;;;;;10.90;5.00;;;;;;;3.04;67.71;99585.25;5048273;28;20059;-53
2022/11/04 09:32:21;;;;;;;14.77;5.80;;;;;;;3.17;67.58;99602.31;5048385;28;20051;-51
2022/11/04 09:34:46;;;;;;;14.40;5.22;;;;;;;3.18;67.64;99605.75;5067629;28;20043;-52
2022/11/04 09:37:12;;;;;;;11.88;5.50;;;;;;;2.98;67.34;99581.00;5047487;28;20405;-49
2022/11/04 09:39:38;;;;;;;9.05;5.15;;;;;;;3.18;67.79;99598.91;5048866;28;20043;-51
2022/11/04 09:42:29;;;;;;;9.35;4.85;;;;;;;3.18;67.64;99604.03;5047969;28;20559;-52
2022/11/04 09:44:58;;;;;;;11.45;4.90;;;;;;;3.03;67.86;99573.31;5047693;28;20559;-54
2022/11/04 09:47:24;;;;;;;18.48;5.68;;;;;;;3.08;67.40;99570.72;5048324;28;20053;-52
2022/11/04 09:49:53;;;;;;;11.50;5.45;;;;;;;3.27;67.53;99598.84;5048131;28;20041;-51
2022/11/04 09:52:28;;;;;;;14.70;5.80;;;;;;;3.27;67.51;99597.97;5039584;28;20040;-48
2022/11/04 09:55:07;;;;;;;14.60;6.40;;;;;;;3.30;67.41;99608.22;5046111;28;20041;-53
2022/11/04 09:57:33;;;;;;;13.40;6.63;;;;;;;3.29;67.39;99601.41;5047696;28;20093;-48
2022/11/04 09:59:59;;;;;;;18.85;6.10;;;;;;;3.25;67.47;99607.41;5047049;28;20080;-52
2022/11/04 10:03:04;;;;;;;16.40;6.25;;;;;;;3.25;67.57;99610.81;5048148;28;20036;-50
2022/11/04 10:05:57;;;;;;;17.27;6.72;;;;;;;3.27;67.69;99605.69;5041886;28;20491;-51
2022/11/04 10:08:34;;;;;;;18.98;5.65;;;;;;;3.11;67.92;99578.38;5049042;28;20040;-54
2022/11/04 10:11:14;;;;;;;20.27;6.35;;;;;;;3.27;67.77;99606.53;5029810;28;20040;-53
2022/11/04 10:14:31;;;;;;;12.02;6.30;;;;;;;3.28;67.77;99609.97;5041901;28;20033;-51
2022/11/04 10:17:07;;;;;;;14.77;6.20;;;;;;;3.26;67.91;99607.41;5025852;28;20049;-48
2022/11/04 10:19:58;;;;;;;18.65;7.07;;;;;;;3.22;67.88;99612.56;5050991;28;20036;-51
2022/11/04 10:22:32;;;;;;;12.93;6.85;;;;;;;3.22;68.06;99615.13;5045915;28;20547;-52
2022/11/04 10:25:08;;;;;;;16.30;6.97;;;;;;;3.16;68.24;99620.31;5046447;28;20049;-52
2022/11/04 10:27:37;;;;;;;16.27;7.28;;;;;;;3.15;68.30;99619.44;5048232;28;20037;-53
2022/11/04 10:30:14;;;;;;;13.52;5.80;;;;;;;3.14;68.43;99620.31;5045655;28;20124;-54
2022/11/04 10:32:48;;;;;;;13.43;6.03;;;;;;;3.12;68.58;99616.91;5046843;28;20041;-49
2022/11/04 10:35:35;;;;;;;11.75;6.30;;;;;;;3.07;68.69;99610.94;5047313;28;20167;-52
2022/11/04 10:38:16;;;;;;;12.10;6.30;;;;;;;3.05;68.90;99607.53;5053621;28;20044;-48
2022/11/04 10:40:45;;;;;;;13.88;6.25;;;;;;;3.07;68.82;99599.81;5047507;28;20126;-50
2022/11/04 10:43:12;;;;;;;;;;;;;;;3.10;68.98;99604.91;5047704;28;20044;-53
2022/11/04 10:46:06;;;;;;;9.23;5.10;;;;;;;3.08;69.00;99604.94;5029475;28;19916;-52
2022/11/04 10:48:40;;;;;;;11.75;5.53;;;;;;;3.13;68.55;99607.50;5047312;28;20131;-50
2022/11/04 10:51:06;;;;;;;12.13;6.05;;;;;;;3.16;68.94;99602.31;5047929;28;20071;-54
2022/11/04 10:53:32;;;;;;;10.02;5.35;;;;;;;3.17;68.85;99594.63;5030615;28;20069;-56
2022/11/04 10:56:13;;;;;;;16.95;6.40;;;;;;;3.25;69.00;99592.84;5044134;28;20037;-54
2022/11/04 10:58:44;;;;;;;16.75;5.80;;;;;;;3.33;68.69;99601.38;5039113;28;20040;-49
2022/11/04 11:01:29;;;;;;;14.52;6.20;;;;;;;3.39;68.61;99597.91;5032254;28;20037;-56
2022/11/04 11:03:55;;;;;;;11.20;5.97;;;;;;;3.40;68.58;99605.59;5044999;28;20048;-53
2022/11/04 11:06:24;;;;;;;12.15;6.30;;;;;;;3.39;68.46;99605.63;5039725;28;20075;-52
2022/11/04 11:08:54;;;;;;;11.40;5.63;;;;;;;3.42;68.36;99608.16;5039595;28;20037;-56
2022/11/04 11:11:40;;;;;;;13.47;5.47;;;;;;;3.42;68.38;99608.16;5052549;28;20451;-56
2022/11/04 11:14:26;;;;;;;13.48;6.75;;;;;;;3.42;68.23;99608.16;5032673;28;20052;-54
2022/11/04 11:16:52;;;;;;;12.00;5.63;;;;;;;3.27;68.28;99583.41;5037545;28;20049;-55
2022/11/04 11:19:20;;;;;;;10.52;5.40;;;;;;;3.42;68.16;99608.16;5030370;28;20044;-47
2022/11/04 11:21:48;;;;;;;14.27;6.10;;;;;;;3.40;68.15;99610.72;5034194;28;20063;-50
2022/11/04 11:24:25;;;;;;;14.57;6.22;;;;;;;3.40;68.32;99610.72;5039885;28;20100;-52
2022/11/04 11:26:56;;;;;;;14.57;6.40;;;;;;;3.42;68.42;99610.72;5044220;28;20047;-51
2022/11/04 11:29:38;;;;;;;16.17;6.47;;;;;;;3.44;68.32;99616.72;5045441;28;20508;-49
2022/11/04 11:32:05;;;;;;;13.63;5.93;;;;;;;3.42;68.31;99618.44;5033644;28;20044;-51
2022/11/04 11:34:36;;;;;;;12.68;6.50;;;;;;;3.25;68.35;99592.84;5044677;28;20037;-49
2022/11/04 11:37:04;;;;;;;15.00;5.72;;;;;;;3.27;68.49;99596.25;5043994;28;20040;-57
2022/11/04 11:39:31;;;;;;;15.85;6.00;;;;;;;3.23;68.42;99586.88;5043691;28;20040;-52
2022/11/04 11:42:24;;;;;;;17.63;6.20;;;;;;;3.37;68.42;99626.16;5045065;28;20041;-52
2022/11/04 11:44:53;;;;;;;12.25;5.43;;;;;;;3.39;68.31;99618.47;5044975;28;20061;-51
2022/11/04 11:47:35;;;;;;;23.97;7.47;;;;;;;3.38;68.21;99627.88;5045588;28;20079;-52
2022/11/04 11:50:05;;;;;;;14.48;5.85;;;;;;;3.36;68.32;99623.59;5048307;28;20068;-54
2022/11/04 11:52:35;;;;;;;13.88;5.47;;;;;;;3.33;68.38;99624.50;5050096;28;20045;-53
2022/11/04 11:55:06;;;;;;;12.68;5.97;;;;;;;3.32;68.30;99627.91;5043747;28;20044;-52
2022/11/04 11:57:45;;;;;;;12.95;5.78;;;;;;;3.32;68.18;99629.63;5048590;28;20504;-53
2022/11/04 12:00:16;;;;;;;14.90;5.75;;;;;;;3.27;68.45;99637.38;5043636;28;20063;-55
2022/11/04 12:02:48;;;;;;;12.48;5.63;;;;;;;3.26;68.33;99639.94;5046283;28;20037;-49
2022/11/04 12:05:14;;;;;;;10.90;5.53;;;;;;;3.25;68.67;99641.66;5046819;28;20041;-50
2022/11/04 12:07:50;;;;;;;10.68;5.78;;;;;;;3.24;68.98;99645.13;5050163;28;20530;-52
2022/11/04 12:10:34;;;;;;;11.15;5.38;;;;;;;3.23;68.69;99640.81;5042845;28;20044;-48
2022/11/04 12:13:18;;;;;;;13.98;5.88;;;;;;;3.21;68.94;99634.84;5045165;28;20508;-50
2022/11/04 12:15:53;;;;;;;19.02;5.57;;;;;;;3.19;68.90;99635.72;5045998;28;20401;-51
2022/11/04 12:18:46;;;;;;;11.50;5.57;;;;;;;3.16;68.93;99634.00;5044981;28;20033;-51
2022/11/04 12:21:15;;;;;;;11.40;5.60;;;;;;;3.15;69.08;99642.56;5057794;28;20050;-50
2022/11/04 12:23:54;;;;;;;12.40;5.82;;;;;;;3.14;69.01;99646.00;5046208;28;20048;-56
2022/11/04 12:26:40;;;;;;;12.27;5.95;;;;;;;2.98;69.06;99616.97;5032360;28;20080;-55